Time;durP1;ratioP1;P1;durP2;ratioP2;P2;SDS_P1;SDS_P2;PMS_P1;PMS_P2;Temp;Humidity;BMP_temperature;BMP_pressure;BME280_temperature;BME280_humidity;BME280_pressure;Samples;Min_cycle;Max_cycle;Signal;HPM_P1;HPM_P2
2023/10/08 00:01:16;;;;;;;0.10;0.10;;;;;;;19.06;68.20;101566.19;7361304;19;20076;-60
2023/10/08 00:03:48;;;;;;;0.10;0.10;;;;;;;19.02;68.37;101565.50;7353742;19;20010;-61
2023/10/08 00:06:14;;;;;;;0.10;0.10;;;;;;;18.88;68.04;101552.88;7353293;19;20593;-60
2023/10/08 00:08:40;;;;;;;0.10;0.10;;;;;;;18.91;68.53;101558.03;7360739;19;20006;-60
2023/10/08 00:11:10;;;;;;;0.10;0.10;;;;;;;18.91;68.46;101560.69;7367894;19;20025;-60
2023/10/08 00:13:42;;;;;;;0.10;0.10;;;;;;;18.88;68.39;101571.38;7355560;19;20025;-60
2023/10/08 00:16:09;;;;;;;0.20;0.20;;;;;;;18.87;68.90;101574.97;7359754;19;20015;-60
2023/10/08 00:18:37;;;;;;;0.10;0.10;;;;;;;18.84;69.14;101575.09;7363461;19;20003;-60
2023/10/08 00:23:42;;;;;;;0.10;0.10;;;;;;;18.68;68.71;101550.22;7363644;19;20006;-60
2023/10/08 00:26:10;;;;;;;0.20;0.20;;;;;;;18.78;68.58;101574.50;7363380;19;20015;-61
2023/10/08 00:28:36;;;;;;;0.10;0.10;;;;;;;18.74;69.31;101575.56;7361828;19;20423;-60
2023/10/08 00:31:12;;;;;;;0.15;0.15;;;;;;;18.71;69.39;101579.22;7361253;19;20010;-60
2023/10/08 00:33:39;;;;;;;0.10;0.10;;;;;;;18.57;69.23;101563.88;7357832;19;20877;-60
2023/10/08 00:36:17;;;;;;;0.10;0.10;;;;;;;18.59;69.35;101569.09;7361824;19;20018;-60
2023/10/08 00:38:53;;;;;;;0.10;0.10;;;;;;;18.67;68.76;101581.09;7353209;19;20010;-61
2023/10/08 00:41:21;;;;;;;0.10;0.10;;;;;;;18.63;69.18;101574.19;7361570;19;20018;-60
2023/10/08 00:43:51;;;;;;;0.10;0.10;;;;;;;18.60;69.31;101570.81;7374062;19;20043;-60
2023/10/08 00:46:42;;;;;;;0.10;0.10;;;;;;;18.50;69.40;101550.97;7365743;19;20025;-60
2023/10/08 00:51:47;;;;;;;0.10;0.10;;;;;;;18.56;69.83;101571.88;7364026;19;20035;-61
2023/10/08 00:54:19;;;;;;;0.10;0.10;;;;;;;18.55;69.79;101570.16;7365618;19;20484;-61
2023/10/08 00:56:53;;;;;;;0.10;0.10;;;;;;;18.55;69.41;101571.03;7366387;19;20047;-60
2023/10/08 00:59:21;;;;;;;0.10;0.10;;;;;;;18.52;69.49;101587.03;7362226;19;20011;-60
2023/10/08 01:01:51;;;;;;;0.10;0.10;;;;;;;18.52;69.30;101586.16;7366705;19;20025;-60
2023/10/08 01:04:23;;;;;;;0.10;0.10;;;;;;;18.46;69.46;101570.56;7362115;19;20030;-61
2023/10/08 01:06:55;;;;;;;0.13;0.13;;;;;;;18.50;69.67;101582.69;7368031;19;20006;-60
2023/10/08 01:09:27;;;;;;;0.10;0.10;;;;;;;18.42;69.79;101573.31;7366924;19;20677;-61
2023/10/08 01:12:33;;;;;;;0.10;0.10;;;;;;;18.49;68.66;101586.28;7368992;19;20016;-60
2023/10/08 01:15:13;;;;;;;0.10;0.10;;;;;;;18.37;69.21;101577.06;7368361;19;20006;-60
2023/10/08 01:17:47;;;;;;;0.10;0.10;;;;;;;18.39;69.75;101585.78;7359673;19;20502;-60
2023/10/08 01:20:33;;;;;;;0.10;0.10;;;;;;;18.34;69.63;101572.75;7365895;19;20014;-60
2023/10/08 01:23:09;;;;;;;0.10;0.10;;;;;;;18.32;70.10;101579.03;7373307;19;20445;-60
2023/10/08 01:25:35;;;;;;;0.10;0.10;;;;;;;18.28;70.08;101567.72;7365655;19;20075;-60
2023/10/08 01:28:01;;;;;;;0.10;0.10;;;;;;;18.26;69.96;101574.88;7366904;19;20525;-60
2023/10/08 01:30:36;;;;;;;0.10;0.10;;;;;;;18.22;69.78;101567.13;7364755;19;20017;-60
2023/10/08 01:33:02;;;;;;;0.10;0.10;;;;;;;18.22;70.41;101578.56;7368800;19;20827;-60
2023/10/08 01:35:31;;;;;;;0.10;0.10;;;;;;;18.20;70.59;101568.94;7355814;19;20027;-60
2023/10/08 01:37:57;;;;;;;0.10;0.10;;;;;;;18.18;70.36;101576.97;7372900;19;20029;-60
2023/10/08 01:40:24;;;;;;;0.10;0.10;;;;;;;18.15;70.48;101572.66;7364076;19;20902;-60
2023/10/08 01:42:53;;;;;;;0.10;0.10;;;;;;;18.16;70.08;101568.25;7366632;19;20020;-60
2023/10/08 01:45:19;;;;;;;0.10;0.10;;;;;;;18.12;70.23;101566.63;7362813;19;20450;-60
2023/10/08 01:47:45;;;;;;;0.10;0.10;;;;;;;18.12;70.49;101567.50;7364408;19;20070;-60
2023/10/08 01:50:21;;;;;;;0.10;0.10;;;;;;;18.09;70.69;101561.47;7367914;19;20479;-60
2023/10/08 01:52:51;;;;;;;0.10;0.10;;;;;;;18.11;70.48;101570.22;7363343;19;20881;-60
2023/10/08 01:55:19;;;;;;;0.10;0.10;;;;;;;18.08;70.31;101570.31;7364960;19;20378;-60
2023/10/08 01:57:51;;;;;;;0.10;0.10;;;;;;;18.00;69.88;101556.56;7359829;19;20010;-60
2023/10/08 02:00:19;;;;;;;0.10;0.10;;;;;;;18.06;70.33;101572.19;7363258;19;20020;-61
2023/10/08 02:02:53;;;;;;;0.10;0.10;;;;;;;18.04;69.96;101568.72;7368321;19;20010;-60
2023/10/08 02:05:20;;;;;;;0.10;0.10;;;;;;;18.01;70.13;101568.84;7359030;19;20011;-60
2023/10/08 02:07:46;;;;;;;0.10;0.10;;;;;;;18.02;70.67;101560.00;7367457;19;20046;-61
2023/10/08 02:10:14;;;;;;;0.10;0.10;;;;;;;18.00;70.69;101564.50;7361248;19;20113;-60
2023/10/08 02:12:39;;;;;;;;;;;;;;;18.04;69.34;101563.44;7363663;19;20715;-61
2023/10/08 02:15:06;;;;;;;0.10;0.10;;;;;;;17.92;70.64;101553.34;7363261;19;19934;-60
2023/10/08 02:17:32;;;;;;;0.10;0.10;;;;;;;17.96;70.82;101568.19;7365356;19;20007;-60
2023/10/08 02:19:58;;;;;;;0.10;0.10;;;;;;;17.91;71.01;101562.22;7359265;19;20010;-60
2023/10/08 02:22:23;;;;;;;0.13;0.13;;;;;;;17.91;70.82;101562.22;7363280;19;20014;-60
2023/10/08 02:24:50;;;;;;;0.10;0.10;;;;;;;17.84;71.25;101559.81;7359021;19;19990;-60
2023/10/08 02:27:16;;;;;;;0.10;0.10;;;;;;;17.88;70.92;101563.19;7360306;19;20014;-60
2023/10/08 02:29:42;;;;;;;0.10;0.10;;;;;;;17.85;70.79;101564.19;7364340;19;20017;-61
2023/10/08 02:32:08;;;;;;;0.10;0.10;;;;;;;17.85;71.04;101561.53;7361679;19;20108;-60
2023/10/08 02:34:35;;;;;;;0.10;0.10;;;;;;;17.84;71.01;101564.22;7364888;19;20466;-60
2023/10/08 02:37:03;;;;;;;0.10;0.10;;;;;;;17.83;70.93;101571.28;7360519;19;20011;-60
2023/10/08 02:39:30;;;;;;;0.10;0.10;;;;;;;17.80;71.04;101570.56;7365258;19;20006;-60
2023/10/08 02:41:58;;;;;;;0.10;0.10;;;;;;;17.78;71.28;101567.97;7361170;19;20094;-60
2023/10/08 02:44:24;;;;;;;0.10;0.10;;;;;;;17.77;70.92;101571.53;7363746;19;20756;-60
2023/10/08 02:46:49;;;;;;;0.10;0.10;;;;;;;17.73;71.32;101559.34;7361137;19;20705;-61
2023/10/08 02:49:20;;;;;;;0.20;0.20;;;;;;;17.75;70.80;101562.81;7363311;19;20010;-61
2023/10/08 02:51:50;;;;;;;0.10;0.10;;;;;;;17.72;71.08;101562.88;7359236;19;20383;-61
2023/10/08 02:54:17;;;;;;;0.10;0.10;;;;;;;17.59;71.14;101540.53;7352134;19;20018;-61
2023/10/08 02:56:51;;;;;;;0.10;0.10;;;;;;;17.69;71.00;101547.19;7360045;19;20010;-60
2023/10/08 02:59:18;;;;;;;0.10;0.10;;;;;;;17.62;71.43;101541.25;7363005;19;20039;-60
2023/10/08 03:01:43;;;;;;;0.10;0.10;;;;;;;17.60;71.90;101537.81;7362748;19;20003;-61
2023/10/08 03:04:17;;;;;;;0.10;0.10;;;;;;;17.58;71.71;101536.13;7363904;19;20466;-60
2023/10/08 03:06:44;;;;;;;0.10;0.10;;;;;;;17.54;71.99;101538.06;7362553;19;20012;-60
2023/10/08 03:09:13;;;;;;;0.10;0.10;;;;;;;17.34;71.81;101504.50;7363537;19;20006;-61
2023/10/08 03:11:39;;;;;;;0.17;0.17;;;;;;;17.47;72.24;101525.13;7360978;19;20031;-60
2023/10/08 03:14:14;;;;;;;0.15;0.15;;;;;;;17.45;71.80;101533.13;7361935;19;20099;-60
2023/10/08 03:16:40;;;;;;;0.10;0.10;;;;;;;17.41;71.75;101525.38;7337370;19;20010;-60
2023/10/08 03:19:06;;;;;;;0.08;0.08;;;;;;;17.38;71.94;101521.91;7357334;19;20010;-60
2023/10/08 03:24:12;;;;;;;0.10;0.10;;;;;;;17.32;71.41;101526.56;7360360;19;20019;-60
2023/10/08 03:26:45;;;;;;;0.10;0.10;;;;;;;17.28;71.33;101519.69;7364110;19;20010;-60
2023/10/08 03:29:17;;;;;;;0.10;0.10;;;;;;;17.24;71.56;101524.22;7361062;19;20620;-60
2023/10/08 03:34:27;;;;;;;0.10;0.10;;;;;;;17.19;71.25;101514.78;7356861;19;20010;-60
2023/10/08 03:36:59;;;;;;;0.10;0.10;;;;;;;17.02;71.51;101496.91;7365261;19;20124;-60
2023/10/08 03:39:41;;;;;;;0.10;0.10;;;;;;;17.10;71.74;101523.88;7362910;19;20014;-61
2023/10/08 03:42:09;;;;;;;0.15;0.15;;;;;;;16.94;71.28;101505.09;7364791;19;20246;-61
2023/10/08 03:44:37;;;;;;;0.10;0.10;;;;;;;17.02;71.45;101523.28;7360955;19;20015;-60
2023/10/08 03:47:10;;;;;;;0.10;0.10;;;;;;;16.98;71.90;101538.38;7357597;19;20014;-60
2023/10/08 03:49:44;;;;;;;0.10;0.10;;;;;;;16.94;72.11;101535.91;7358261;19;20471;-60
2023/10/08 03:52:10;;;;;;;0.10;0.10;;;;;;;16.91;72.21;101536.00;7360509;19;20665;-60
2023/10/08 03:54:35;;;;;;;0.10;0.10;;;;;;;16.88;72.29;101536.09;7363481;19;20007;-61
2023/10/08 03:57:04;;;;;;;0.10;0.10;;;;;;;16.84;72.12;101523.03;7358186;19;20045;-60
2023/10/08 03:59:30;;;;;;;0.10;0.10;;;;;;;16.79;72.42;101509.16;7359410;19;20565;-60
2023/10/08 04:02:21;;;;;;;0.10;0.10;;;;;;;16.80;71.42;101507.38;7360536;19;20978;-60
2023/10/08 04:04:57;;;;;;;0.10;0.10;;;;;;;16.73;72.20;101522.56;7363097;19;20021;-60
2023/10/08 04:07:24;;;;;;;0.10;0.10;;;;;;;16.70;71.95;101512.09;7353234;19;20053;-61
2023/10/08 04:09:55;;;;;;;0.10;0.10;;;;;;;16.65;72.18;101506.09;7361780;19;20006;-61
2023/10/08 04:12:20;;;;;;;0.17;0.17;;;;;;;16.61;72.52;101502.72;7362226;19;20046;-60
2023/10/08 04:14:46;;;;;;;0.10;0.10;;;;;;;16.60;72.16;101513.31;7362028;19;20109;-61
2023/10/08 04:17:11;;;;;;;0.10;0.10;;;;;;;16.56;72.00;101498.50;7363926;19;20034;-60
2023/10/08 04:19:36;;;;;;;0.10;0.10;;;;;;;16.53;72.33;101503.91;7365018;19;20017;-60
2023/10/08 04:22:02;;;;;;;0.00;0.00;;;;;;;16.48;72.53;101504.06;7372684;19;20006;-60
2023/10/08 04:24:29;;;;;;;0.10;0.10;;;;;;;16.41;72.15;101499.91;7373575;19;20518;-60
2023/10/08 04:27:02;;;;;;;0.10;0.10;;;;;;;16.45;72.25;101517.34;7366465;19;20006;-61
2023/10/08 04:29:32;;;;;;;0.10;0.10;;;;;;;16.31;72.60;101493.22;7369802;19;20045;-60
2023/10/08 04:32:12;;;;;;;0.10;0.10;;;;;;;16.37;72.92;101510.59;7359591;19;20003;-60
2023/10/08 04:34:38;;;;;;;0.10;0.10;;;;;;;16.33;72.87;101497.53;7373467;19;20498;-60
2023/10/08 04:37:12;;;;;;;0.10;0.10;;;;;;;16.30;72.35;101497.63;7366879;19;20010;-61
2023/10/08 04:39:46;;;;;;;0.10;0.10;;;;;;;16.19;72.68;101478.69;7367099;19;20381;-60
2023/10/08 04:42:13;;;;;;;0.10;0.10;;;;;;;16.26;72.73;101496.00;7368539;19;20006;-61
2023/10/08 04:44:39;;;;;;;0.10;0.10;;;;;;;16.25;72.47;101515.38;7369590;19;20093;-61
2023/10/08 04:47:07;;;;;;;0.10;0.10;;;;;;;16.22;72.83;101504.94;7367399;19;20070;-60
2023/10/08 04:49:34;;;;;;;0.00;0.00;;;;;;;16.20;72.37;101512.03;7349457;19;21354;-61
2023/10/08 04:52:14;;;;;;;0.10;0.10;;;;;;;16.20;72.11;101514.66;7353337;19;20014;-61
2023/10/08 04:54:44;;;;;;;0.10;0.10;;;;;;;16.15;72.52;101507.81;7368371;19;20048;-61
2023/10/08 04:57:15;;;;;;;0.10;0.10;;;;;;;16.14;72.52;101512.25;7367833;19;20637;-60
2023/10/08 04:59:42;;;;;;;0.10;0.10;;;;;;;16.13;72.94;101515.78;7371150;19;20019;-60
2023/10/08 05:02:19;;;;;;;0.10;0.10;;;;;;;16.11;72.72;101516.75;7370536;19;20025;-60
2023/10/08 05:08:00;;;;;;;0.10;0.10;;;;;;;16.08;72.80;101515.94;7365773;19;20022;-60
2023/10/08 05:15:36;;;;;;;0.10;0.10;;;;;;;15.99;73.30;101518.88;7364489;19;20010;-60
2023/10/08 05:21:02;;;;;;;0.15;0.15;;;;;;;15.99;73.19;101520.63;7363166;19;20015;-60
2023/10/08 05:25:58;;;;;;;0.10;0.10;;;;;;;15.99;73.60;101539.06;7371379;19;19923;-60
2023/10/08 05:28:26;;;;;;;0.10;0.10;;;;;;;15.98;73.65;101524.19;7362746;19;20481;-61
2023/10/08 05:31:11;;;;;;;0.10;0.10;;;;;;;15.96;73.42;101518.94;7367916;19;20014;-60
2023/10/08 05:39:29;;;;;;;0.10;0.10;;;;;;;15.91;73.53;101512.09;7366851;19;20019;-60
2023/10/08 05:42:13;;;;;;;0.10;0.10;;;;;;;15.75;73.44;101499.44;7367214;19;20580;-61
2023/10/08 05:44:45;;;;;;;0.10;0.10;;;;;;;15.78;73.39;101498.47;7372182;19;20029;-60
2023/10/08 05:50:28;;;;;;;0.10;0.10;;;;;;;15.91;73.51;101515.59;7367127;19;20043;-60
2023/10/08 05:52:50;;;;;;;0.10;0.10;;;;;;;15.88;73.19;101526.25;7364728;19;20627;-60
2023/10/08 05:55:26;;;;;;;0.10;0.10;;;;;;;15.89;73.35;101527.09;7365805;19;20463;-60
2023/10/08 05:58:13;;;;;;;0.10;0.10;;;;;;;15.85;72.88;101507.03;7370907;19;20017;-60
2023/10/08 06:01:01;;;;;;;0.10;0.10;;;;;;;15.91;72.85;101517.38;7366009;19;20011;-60
2023/10/08 06:03:32;;;;;;;0.10;0.10;;;;;;;15.86;72.66;101516.66;7364267;19;20042;-61
2023/10/08 06:06:22;;;;;;;0.10;0.10;;;;;;;15.82;72.50;101506.25;7360079;19;20755;-60
2023/10/08 06:11:44;;;;;;;0.10;0.10;;;;;;;15.91;72.46;101514.75;7364474;19;20014;-60
2023/10/08 06:14:13;;;;;;;0.10;0.10;;;;;;;15.89;73.03;101527.09;7364772;19;20090;-60
2023/10/08 06:16:43;;;;;;;0.13;0.13;;;;;;;15.90;72.92;101528.81;7364337;19;20007;-60
2023/10/08 06:19:10;;;;;;;0.10;0.10;;;;;;;15.87;72.93;101527.16;7364882;19;20022;-60
2023/10/08 06:21:40;;;;;;;0.10;0.10;;;;;;;15.85;72.31;101523.69;7360268;19;20014;-60
2023/10/08 06:24:10;;;;;;;0.10;0.10;;;;;;;15.87;72.75;101531.56;7366677;19;20487;-60
2023/10/08 06:26:42;;;;;;;0.10;0.10;;;;;;;15.85;72.30;101520.22;7361029;19;20002;-60
2023/10/08 06:29:26;;;;;;;0.10;0.10;;;;;;;15.84;72.53;101529.88;7364036;19;20015;-60
2023/10/08 06:31:55;;;;;;;0.10;0.10;;;;;;;15.81;72.30;101525.59;7364130;19;20462;-61
2023/10/08 06:34:22;;;;;;;0.10;0.10;;;;;;;15.80;72.20;101502.78;7368048;19;20489;-60
2023/10/08 06:36:54;;;;;;;0.17;0.17;;;;;;;15.79;72.27;101505.47;7364099;19;20045;-60
2023/10/08 06:39:33;;;;;;;0.10;0.10;;;;;;;15.79;72.40;101535.28;7362099;19;20139;-60
2023/10/08 06:41:58;;;;;;;0.10;0.10;;;;;;;15.76;72.98;101532.78;7365549;19;20006;-60
2023/10/08 06:44:24;;;;;;;0.10;0.10;;;;;;;15.74;73.00;101521.41;7363241;19;20007;-60
2023/10/08 06:46:52;;;;;;;0.10;0.10;;;;;;;15.72;72.94;101525.88;7365046;19;20010;-60
2023/10/08 06:49:18;;;;;;;0.10;0.10;;;;;;;15.64;72.98;101501.53;7355658;19;20046;-60
2023/10/08 06:51:44;;;;;;;0.10;0.10;;;;;;;15.65;73.19;101505.03;7365033;19;20613;-60
2023/10/08 06:54:13;;;;;;;0.10;0.10;;;;;;;15.69;73.01;101515.41;7333720;19;20006;-61
2023/10/08 06:56:43;;;;;;;0.10;0.10;;;;;;;15.68;72.69;101529.50;7365658;19;20963;-60
2023/10/08 06:59:09;;;;;;;0.10;0.10;;;;;;;15.63;72.91;101523.50;7356766;19;20010;-60
2023/10/08 07:01:45;;;;;;;0.10;0.10;;;;;;;15.67;72.78;101530.41;7357091;19;20042;-60
2023/10/08 07:04:14;;;;;;;0.10;0.10;;;;;;;15.67;72.88;101537.47;7356639;19;20451;-60
2023/10/08 07:06:43;;;;;;;0.10;0.10;;;;;;;15.68;72.95;101520.75;7360634;19;20014;-61
2023/10/08 07:09:22;;;;;;;0.10;0.10;;;;;;;15.69;73.07;101531.22;7364038;19;20011;-60
2023/10/08 07:11:49;;;;;;;0.10;0.10;;;;;;;15.70;72.99;101554.00;7372262;19;20517;-60
2023/10/08 07:14:15;;;;;;;0.00;0.00;;;;;;;15.72;73.22;101540.81;7366058;19;20019;-61
2023/10/08 07:16:41;;;;;;;0.10;0.10;;;;;;;15.74;72.83;101526.69;7359480;19;20059;-60
2023/10/08 07:19:17;;;;;;;0.10;0.10;;;;;;;15.76;73.31;101532.78;7362764;19;20025;-60
2023/10/08 07:21:46;;;;;;;0.10;0.10;;;;;;;15.79;73.08;101537.94;7362932;19;20488;-60
2023/10/08 07:24:21;;;;;;;0.10;0.10;;;;;;;15.81;72.95;101522.97;7364369;19;20040;-60
2023/10/08 07:26:47;;;;;;;0.13;0.13;;;;;;;15.85;72.80;101533.38;7356658;19;20853;-60
2023/10/08 07:29:17;;;;;;;0.10;0.10;;;;;;;15.91;72.98;101543.72;7362503;19;20098;-61
2023/10/08 07:31:49;;;;;;;0.10;0.10;;;;;;;15.93;73.13;101565.63;7358732;19;20018;-60
2023/10/08 07:34:18;;;;;;;0.10;0.10;;;;;;;15.99;72.98;101568.91;7361838;19;20048;-61
2023/10/08 07:36:44;;;;;;;0.10;0.10;;;;;;;16.02;72.87;101558.28;7359779;19;20074;-60
2023/10/08 07:39:24;;;;;;;0.10;0.10;;;;;;;16.05;73.15;101565.22;7364445;19;20017;-60
2023/10/08 07:41:50;;;;;;;0.15;0.15;;;;;;;16.12;72.85;101561.50;7367485;19;20465;-60
2023/10/08 07:44:20;;;;;;;0.10;0.10;;;;;;;16.17;72.72;101556.06;7362568;19;20043;-61
2023/10/08 07:46:46;;;;;;;0.20;0.20;;;;;;;16.21;72.67;101553.28;7361145;19;20017;-60
2023/10/08 07:49:14;;;;;;;0.10;0.10;;;;;;;16.26;72.88;101569.81;7356602;19;20014;-60
2023/10/08 07:51:39;;;;;;;;;;;;;;;16.36;72.36;101570.38;7365062;19;20082;-60
2023/10/08 07:54:09;;;;;;;0.10;0.10;;;;;;;16.32;72.46;101559.09;7360234;19;19999;-61
2023/10/08 07:56:37;;;;;;;0.10;0.10;;;;;;;16.39;72.71;101558.88;7369422;19;20579;-60
2023/10/08 07:59:08;;;;;;;0.10;0.10;;;;;;;16.50;72.46;101572.56;7359793;19;20574;-61
2023/10/08 08:01:34;;;;;;;0.10;0.10;;;;;;;16.45;72.75;101561.31;7368788;19;20019;-60
2023/10/08 08:04:00;;;;;;;0.10;0.10;;;;;;;16.61;72.52;101580.97;7361623;19;20887;-61
2023/10/08 08:06:25;;;;;;;0.10;0.10;;;;;;;16.58;72.58;101565.25;7369119;19;20014;-61
2023/10/08 08:08:51;;;;;;;0.10;0.10;;;;;;;16.71;72.29;101577.13;7369885;19;20010;-60
2023/10/08 08:11:24;;;;;;;0.10;0.10;;;;;;;16.75;72.65;101584.03;7371526;19;20491;-60
2023/10/08 08:13:49;;;;;;;0.15;0.15;;;;;;;16.80;72.11;101584.72;7366690;19;20094;-60
2023/10/08 08:16:19;;;;;;;0.10;0.10;;;;;;;16.85;72.10;101587.22;7370290;19;20094;-60
2023/10/08 08:18:51;;;;;;;0.10;0.10;;;;;;;16.84;72.02;101586.34;7373811;19;20797;-60
2023/10/08 08:21:19;;;;;;;0.10;0.10;;;;;;;16.94;72.42;101604.50;7371980;19;20486;-60
2023/10/08 08:23:49;;;;;;;0.10;0.10;;;;;;;17.06;72.31;101618.13;7369317;19;20014;-60
2023/10/08 08:26:27;;;;;;;0.10;0.10;;;;;;;17.06;72.28;101598.78;7362604;19;20030;-61
2023/10/08 08:28:57;;;;;;;0.10;0.10;;;;;;;17.30;71.68;101619.03;7366797;19;20014;-61
2023/10/08 08:31:23;;;;;;;0.10;0.10;;;;;;;17.42;71.42;101617.72;7372397;19;20014;-61
2023/10/08 08:34:23;;;;;;;0.20;0.20;;;;;;;17.53;71.09;101617.31;7377065;19;20025;-60
2023/10/08 08:36:46;;;;;;;0.10;0.10;;;;;;;17.70;70.45;101628.13;7356034;19;20006;-60
2023/10/08 08:39:17;;;;;;;0.20;0.20;;;;;;;17.83;69.99;101629.41;7363767;19;20401;-61
2023/10/08 08:41:43;;;;;;;0.10;0.10;;;;;;;17.98;69.43;101621.81;7366954;19;20382;-60
2023/10/08 08:44:09;;;;;;;0.10;0.10;;;;;;;18.14;69.09;101630.88;7367766;19;20815;-60
2023/10/08 08:46:37;;;;;;;0.10;0.10;;;;;;;18.34;69.14;101636.22;7368170;19;20011;-61
2023/10/08 08:49:04;;;;;;;0.10;0.10;;;;;;;18.54;69.16;101637.19;7374877;19;20014;-60
2023/10/08 08:51:31;;;;;;;0.10;0.10;;;;;;;18.74;68.93;101645.22;7365662;19;20753;-61
2023/10/08 08:53:59;;;;;;;0.10;0.10;;;;;;;18.91;67.81;101647.16;7363367;19;20035;-61
2023/10/08 08:56:26;;;;;;;0.10;0.10;;;;;;;19.03;67.39;101661.66;7362879;19;20031;-60
2023/10/08 08:58:51;;;;;;;0.10;0.10;;;;;;;19.18;67.21;101664.50;7359777;19;20025;-61
2023/10/08 09:01:19;;;;;;;0.10;0.10;;;;;;;19.27;66.84;101668.56;7332839;19;20092;-61
2023/10/08 09:03:47;;;;;;;0.10;0.10;;;;;;;19.31;66.34;101661.31;7367138;19;20038;-61
2023/10/08 09:06:13;;;;;;;0.10;0.10;;;;;;;19.33;66.15;101662.13;7365192;19;20446;-60
2023/10/08 09:08:45;;;;;;;0.10;0.10;;;;;;;19.34;66.04;101666.50;7360951;19;20113;-60
2023/10/08 09:11:14;;;;;;;0.10;0.10;;;;;;;19.39;65.98;101675.09;7366008;19;20017;-61
2023/10/08 09:13:40;;;;;;;0.10;0.10;;;;;;;19.35;65.87;101670.84;7362344;19;20018;-60
2023/10/08 09:16:12;;;;;;;0.10;0.10;;;;;;;19.40;66.14;101682.09;7359915;19;20014;-60
2023/10/08 09:18:38;;;;;;;0.10;0.10;;;;;;;19.35;66.17;101674.34;7363597;19;20007;-61
2023/10/08 09:21:15;;;;;;;0.10;0.10;;;;;;;19.41;66.33;101670.56;7365163;19;20371;-61
2023/10/08 09:23:48;;;;;;;0.10;0.10;;;;;;;19.36;66.09;101676.09;7361274;19;20069;-61
2023/10/08 09:26:16;;;;;;;0.15;0.15;;;;;;;19.35;65.74;101679.66;7365563;19;20003;-61
2023/10/08 09:28:49;;;;;;;0.10;0.10;;;;;;;19.38;66.47;101679.53;7367417;19;20078;-60
2023/10/08 09:31:15;;;;;;;0.10;0.10;;;;;;;19.36;65.96;101676.09;7368577;19;20023;-60
2023/10/08 09:33:41;;;;;;;0.10;0.10;;;;;;;19.38;65.47;101673.38;7363568;19;20259;-60
2023/10/08 09:36:10;;;;;;;0.10;0.10;;;;;;;19.40;65.84;101672.38;7366206;19;20022;-60
2023/10/08 09:38:37;;;;;;;0.10;0.10;;;;;;;19.43;65.85;101666.09;7361283;19;20446;-61
2023/10/08 09:41:03;;;;;;;0.10;0.10;;;;;;;19.45;65.75;101662.44;7365205;19;20011;-61
2023/10/08 09:43:29;;;;;;;0.10;0.10;;;;;;;19.52;65.89;101656.88;7365479;19;20793;-61
2023/10/08 09:46:06;;;;;;;0.10;0.10;;;;;;;19.67;66.53;101648.28;7361491;19;20732;-61
2023/10/08 09:48:37;;;;;;;0.10;0.10;;;;;;;19.79;65.97;101626.50;7354340;19;20007;-60
2023/10/08 09:51:06;;;;;;;0.10;0.10;;;;;;;19.85;64.63;101589.09;7356324;19;20007;-60
2023/10/08 09:53:55;;;;;;;0.10;0.10;;;;;;;20.02;65.60;101574.16;7363450;19;20422;-61
2023/10/08 09:56:22;;;;;;;0.10;0.10;;;;;;;20.02;64.05;101575.06;7360300;19;20018;-61
2023/10/08 09:58:49;;;;;;;0.10;0.10;;;;;;;20.07;64.72;101564.19;7359043;19;20013;-60
2023/10/08 10:01:17;;;;;;;0.10;0.10;;;;;;;20.15;64.21;101556.72;7362415;19;20019;-60
2023/10/08 10:03:44;;;;;;;0.20;0.20;;;;;;;20.26;63.91;101556.19;7362022;19;20831;-60
2023/10/08 10:06:15;;;;;;;;;;;;;;;20.49;66.62;101574.53;7364128;19;20486;-60
2023/10/08 10:08:42;;;;;;;0.10;0.10;;;;;;;20.54;64.42;101577.81;7362065;19;19922;-61
2023/10/08 10:11:08;;;;;;;0.10;0.10;;;;;;;20.68;64.24;101579.75;7364606;19;20014;-61
2023/10/08 10:13:38;;;;;;;0.10;0.10;;;;;;;20.79;64.60;101576.56;7362295;19;20026;-60
2023/10/08 10:16:07;;;;;;;0.13;0.13;;;;;;;20.88;63.60;101557.47;7356461;19;20461;-60
2023/10/08 10:18:33;;;;;;;0.10;0.10;;;;;;;21.13;63.75;101565.03;7361194;19;20498;-60
2023/10/08 10:21:19;;;;;;;0.10;0.10;;;;;;;21.30;62.74;101567.69;7349566;19;20011;-60
2023/10/08 10:23:50;;;;;;;0.10;0.10;;;;;;;21.43;62.44;101563.41;7362969;19;20006;-61
2023/10/08 10:26:30;;;;;;;0.10;0.10;;;;;;;21.66;63.85;101553.31;7333683;19;20014;-61
2023/10/08 10:29:08;;;;;;;0.10;0.10;;;;;;;21.81;63.37;101544.50;7362265;19;20006;-61
2023/10/08 10:31:34;;;;;;;0.10;0.10;;;;;;;21.88;61.24;101543.19;7354561;19;20011;-60
2023/10/08 10:34:12;;;;;;;0.10;0.10;;;;;;;22.15;61.98;101545.25;7357505;19;20458;-60
2023/10/08 10:36:39;;;;;;;0.10;0.10;;;;;;;22.24;60.99;101544.72;7356259;19;20806;-60
2023/10/08 10:39:15;;;;;;;0.10;0.10;;;;;;;22.39;60.75;101543.81;7362878;19;20602;-61
2023/10/08 10:41:51;;;;;;;0.00;0.00;;;;;;;22.50;60.54;101536.03;7359369;19;20034;-61
2023/10/08 10:44:16;;;;;;;0.10;0.10;;;;;;;22.60;60.09;101514.22;7364034;19;20022;-60
2023/10/08 10:46:42;;;;;;;0.10;0.10;;;;;;;22.79;59.47;101498.84;7354791;19;20736;-60
2023/10/08 10:49:21;;;;;;;0.10;0.10;;;;;;;23.09;59.65;101522.75;7348394;19;20010;-60
2023/10/08 10:51:59;;;;;;;0.15;0.15;;;;;;;23.31;59.66;101544.44;7351083;19;20011;-60
2023/10/08 10:54:25;;;;;;;0.10;0.10;;;;;;;23.31;58.99;101535.59;7360475;19;21223;-60
2023/10/08 10:57:17;;;;;;;0.10;0.10;;;;;;;23.51;59.33;101535.19;7357652;19;20013;-61
2023/10/08 10:59:38;;;;;;;0.10;0.10;;;;;;;23.62;58.71;101514.97;7357103;19;20011;-60
2023/10/08 11:02:20;;;;;;;0.10;0.10;;;;;;;23.75;58.62;101515.94;7353486;19;20010;-60
2023/10/08 11:04:51;;;;;;;0.10;0.10;;;;;;;23.68;57.66;101503.97;7349913;19;21150;-61
2023/10/08 11:07:19;;;;;;;0.10;0.10;;;;;;;23.79;58.34;101507.63;7356592;19;20025;-60
2023/10/08 11:09:46;;;;;;;0.10;0.10;;;;;;;23.77;57.84;101530.00;7358234;19;20022;-60
2023/10/08 11:12:18;;;;;;;0.15;0.15;;;;;;;23.79;58.67;101539.66;7359708;19;20047;-60
2023/10/08 11:14:46;;;;;;;0.10;0.10;;;;;;;23.80;58.70;101549.34;7355739;19;20017;-61
2023/10/08 11:17:16;;;;;;;0.10;0.10;;;;;;;23.76;59.50;101565.66;7343643;19;20002;-60
2023/10/08 11:19:48;;;;;;;0.10;0.10;;;;;;;23.77;59.27;101562.91;7353240;19;20674;-60
2023/10/08 11:22:18;;;;;;;0.20;0.20;;;;;;;23.79;60.00;101586.81;7347531;19;20006;-61
2023/10/08 11:24:48;;;;;;;0.10;0.10;;;;;;;23.85;59.54;101628.22;7359204;19;20018;-60
2023/10/08 11:27:28;;;;;;;0.10;0.10;;;;;;;23.93;59.51;101629.47;7361014;19;20017;-61
2023/10/08 11:29:57;;;;;;;0.10;0.10;;;;;;;23.94;59.41;101632.97;7364469;19;20018;-60
2023/10/08 11:32:27;;;;;;;0.10;0.10;;;;;;;24.00;59.07;101638.78;7361906;19;20018;-60
2023/10/08 11:34:59;;;;;;;0.10;0.10;;;;;;;24.13;59.65;101621.94;7352269;19;20562;-60
2023/10/08 11:37:35;;;;;;;0.20;0.20;;;;;;;24.18;59.31;101635.84;7353086;19;20010;-61
2023/10/08 11:40:08;;;;;;;0.10;0.10;;;;;;;24.15;58.90;101641.41;7357156;19;20014;-61
2023/10/08 11:44:59;;;;;;;0.10;0.10;;;;;;;24.21;57.53;101641.00;7357618;19;20014;-60
2023/10/08 11:47:31;;;;;;;0.10;0.10;;;;;;;24.27;58.32;101635.25;7352834;19;20013;-61
2023/10/08 11:50:10;;;;;;;0.10;0.10;;;;;;;24.22;58.09;101632.03;7359740;19;20011;-61
2023/10/08 11:52:41;;;;;;;0.10;0.10;;;;;;;24.22;58.15;101637.38;7350799;19;20040;-61
2023/10/08 11:55:07;;;;;;;0.10;0.10;;;;;;;24.25;57.90;101645.19;7328726;19;20107;-60
2023/10/08 11:57:35;;;;;;;0.10;0.10;;;;;;;24.28;58.20;101647.66;7357177;19;20020;-60
2023/10/08 12:00:18;;;;;;;0.10;0.10;;;;;;;24.30;58.14;101635.94;7350956;19;20024;-60
2023/10/08 12:02:47;;;;;;;0.10;0.10;;;;;;;24.36;57.65;101626.69;7354219;19;20020;-61
2023/10/08 12:05:18;;;;;;;0.13;0.13;;;;;;;24.43;57.60;101625.34;7354753;19;20515;-61
2023/10/08 12:07:47;;;;;;;0.10;0.10;;;;;;;24.59;58.02;101623.34;7358306;19;20029;-60
2023/10/08 12:10:16;;;;;;;0.20;0.20;;;;;;;24.64;57.83;101612.38;7358337;19;20958;-61
2023/10/08 12:12:43;;;;;;;0.10;0.10;;;;;;;24.88;57.96;101614.31;7358064;19;20431;-60
2023/10/08 12:15:09;;;;;;;0.10;0.10;;;;;;;25.18;58.76;101611.38;7349126;19;20042;-60
2023/10/08 12:17:39;;;;;;;0.10;0.10;;;;;;;25.56;57.29;101609.53;7352655;19;20007;-61
2023/10/08 12:20:22;;;;;;;0.00;0.00;;;;;;;26.00;57.12;101594.78;7356701;19;20897;-60